Time;durP1;ratioP1;P1;durP2;ratioP2;P2;SDS_P1;SDS_P2;PMS_P1;PMS_P2;Temp;Humidity;BMP_temperature;BMP_pressure;BME280_temperature;BME280_humidity;BME280_pressure;Samples;Min_cycle;Max_cycle;Signal;HPM_P1;HPM_P2
2022/01/30 08:42:44;;;;;;;9.90;5.50;;;;;;;;;;6352085;22;20022;-81
2022/01/30 08:45:13;;;;;;;8.93;6.00;;;;;;;;;;6372182;22;20030;-81
2022/01/30 08:47:42;;;;;;;7.20;4.78;;;;;;;;;;6371309;22;19999;-81
2022/01/30 08:50:10;;;;;;;7.95;4.53;;;;;;;;;;6371178;22;20073;-81
2022/01/30 08:52:36;;;;;;;9.15;5.28;;;;;;;;;;6371346;22;20002;-82
2022/01/30 08:55:04;;;;;;;9.07;4.93;;;;;;;;;;6370949;22;20022;-81
2022/01/30 08:57:30;;;;;;;8.80;5.20;;;;;;;;;;6371172;22;20014;-80
2022/01/30 08:59:57;;;;;;;7.53;5.25;;;;;;;;;;6371054;22;20371;-80
2022/01/30 09:02:23;;;;;;;7.82;4.75;;;;;;;;;;6371052;22;20002;-80
2022/01/30 09:04:49;;;;;;;7.95;5.82;;;;;;;;;;6371169;22;20006;-81
2022/01/30 13:58:45;;;;;;;9.07;5.85;;;;;;;;;;6365345;22;20019;-83
2022/01/30 14:01:13;;;;;;;9.23;7.00;;;;;;;;;;6371033;22;20003;-81
2022/01/30 14:03:41;;;;;;;8.98;6.20;;;;;;;;;;6370564;22;20002;-81
2022/01/30 14:06:24;;;;;;;8.98;5.95;;;;;;;;;;6369275;22;20021;-81
2022/01/30 14:08:55;;;;;;;9.43;6.30;;;;;;;;;;6370301;22;20003;-81
2022/01/30 14:11:32;;;;;;;8.35;5.85;;;;;;;;;;6370393;22;19998;-80
2022/01/30 14:14:14;;;;;;;8.52;6.00;;;;;;;;;;6370425;22;19999;-81
2022/01/30 14:16:50;;;;;;;10.18;6.13;;;;;;;;;;6370162;22;20439;-81
2022/01/30 14:19:21;;;;;;;7.72;5.78;;;;;;;;;;6370624;22;20003;-79
2022/01/30 14:21:49;;;;;;;7.50;5.43;;;;;;;;;;6342377;22;20002;-81
2022/01/30 14:24:29;;;;;;;7.95;5.57;;;;;;;;;;6343135;22;20376;-84
2022/01/30 14:27:07;;;;;;;7.93;5.45;;;;;;;;;;6370089;22;20056;-81
2022/01/30 14:29:33;;;;;;;7.70;5.95;;;;;;;;;;6370712;22;20029;-80
2022/01/30 14:32:01;;;;;;;8.65;5.57;;;;;;;;;;6370413;22;20468;-80
2022/01/30 14:34:28;;;;;;;10.00;6.22;;;;;;;;;;6370137;22;20002;-81
2022/01/30 14:36:59;;;;;;;9.82;6.93;;;;;;;;;;6370309;22;20025;-82
2022/01/30 14:39:29;;;;;;;10.13;5.75;;;;;;;;;;6370513;22;20009;-81
2022/01/30 14:41:55;;;;;;;;;;;;;;;;;;6372237;22;20002;-83
2022/01/30 14:44:21;;;;;;;8.07;5.75;;;;;;;;;;6372374;22;19910;-82
2022/01/30 14:46:47;;;;;;;7.63;5.50;;;;;;;;;;6372237;22;20039;-84
2022/01/30 14:49:13;;;;;;;7.97;5.63;;;;;;;;;;6372182;22;20298;-80
2022/01/30 14:51:39;;;;;;;9.82;7.97;;;;;;;;;;6372348;22;20006;-81
2022/01/30 14:54:04;;;;;;;8.73;6.35;;;;;;;;;;6371719;22;20402;-80
2022/01/30 14:56:30;;;;;;;9.02;6.68;;;;;;;;;;6371955;22;20002;-81
2022/01/30 14:58:56;;;;;;;8.00;6.57;;;;;;;;;;6372050;22;20333;-81
2022/01/30 15:01:21;;;;;;;10.07;6.50;;;;;;;;;;6371781;22;20003;-81
2022/01/30 15:03:47;;;;;;;12.10;7.07;;;;;;;;;;6372020;22;20008;-81
2022/01/30 15:06:12;;;;;;;9.30;6.38;;;;;;;;;;6372019;22;20030;-80
2022/01/30 15:08:38;;;;;;;8.93;5.93;;;;;;;;;;6371440;22;20002;-83
2022/01/30 15:11:03;;;;;;;13.52;6.47;;;;;;;;;;6370463;22;19998;-81
2022/01/30 15:13:29;;;;;;;8.60;5.80;;;;;;;;;;6342391;22;20013;-81
2022/01/30 15:15:57;;;;;;;9.90;5.90;;;;;;;;;;6342429;22;20067;-81
2022/01/30 15:18:30;;;;;;;11.93;6.10;;;;;;;;;;6370765;22;20005;-81
2022/01/30 15:20:56;;;;;;;10.18;6.00;;;;;;;;;;6370995;22;20002;-81
2022/01/30 15:23:22;;;;;;;8.38;5.82;;;;;;;;;;6371546;22;20009;-81
2022/01/30 15:25:47;;;;;;;9.20;6.40;;;;;;;;;;6371630;22;20007;-81
2022/01/30 15:28:13;;;;;;;8.25;6.47;;;;;;;;;;6371873;22;20009;-80
2022/01/30 15:30:39;;;;;;;10.25;6.60;;;;;;;;;;6344257;22;20080;-80
2022/01/30 15:33:04;;;;;;;10.15;6.38;;;;;;;;;;6371778;22;20123;-80
2022/01/30 15:35:30;;;;;;;9.63;6.13;;;;;;;;;;6371624;22;20006;-80
2022/01/30 15:37:55;;;;;;;9.63;6.53;;;;;;;;;;6371583;22;20006;-81
2022/01/30 15:40:21;;;;;;;9.18;6.47;;;;;;;;;;6371899;22;20421;-83
2022/01/30 15:42:46;;;;;;;9.15;6.70;;;;;;;;;;6371968;22;20074;-83
2022/01/30 15:50:25;;;;;;;12.07;7.07;;;;;;;;;;6371548;22;20572;-80
2022/01/30 15:52:52;;;;;;;11.48;6.30;;;;;;;;;;6371882;22;20143;-81
2022/01/30 15:55:17;;;;;;;10.32;6.50;;;;;;;;;;6371690;22;20013;-80
2022/01/30 15:57:43;;;;;;;10.88;6.65;;;;;;;;;;6371980;22;20002;-80
2022/01/30 16:00:13;;;;;;;8.95;6.47;;;;;;;;;;6371617;22;20010;-81
2022/01/30 16:02:42;;;;;;;11.40;7.07;;;;;;;;;;6343735;22;20006;-81
2022/01/30 16:05:08;;;;;;;11.30;7.00;;;;;;;;;;6371769;22;20006;-82
2022/01/30 16:07:34;;;;;;;10.55;6.75;;;;;;;;;;6371506;22;20435;-81
2022/01/30 16:10:07;;;;;;;13.13;8.50;;;;;;;;;;6343637;22;19998;-84
2022/01/30 16:17:56;;;;;;;21.35;12.60;;;;;;;;;;6371236;22;20010;-81
2022/01/30 16:20:22;;;;;;;40.42;22.55;;;;;;;;;;6371535;22;20006;-82
2022/01/30 16:22:47;;;;;;;27.52;17.65;;;;;;;;;;6370498;22;20325;-82
2022/01/30 16:25:13;;;;;;;15.40;10.38;;;;;;;;;;6370777;22;19998;-83
2022/01/30 16:27:39;;;;;;;16.20;10.10;;;;;;;;;;6371848;22;19999;-83
2022/01/30 16:30:07;;;;;;;15.77;9.43;;;;;;;;;;6371099;22;20005;-81
2022/01/30 16:32:33;;;;;;;14.35;9.30;;;;;;;;;;6371112;22;20117;-85
2022/01/30 16:34:58;;;;;;;14.68;9.40;;;;;;;;;;6372321;22;20002;-83
2022/01/30 16:37:25;;;;;;;18.85;12.10;;;;;;;;;;6371387;22;20013;-85
2022/01/30 16:39:51;;;;;;;19.42;11.55;;;;;;;;;;6371237;22;20054;-82
2022/01/30 16:42:16;;;;;;;18.55;11.13;;;;;;;;;;6371090;22;20085;-82
2022/01/30 18:22:23;;;;;;;14.27;9.52;;;;;;;;;;6292529;22;20445;-82
2022/01/30 18:24:49;;;;;;;11.73;9.10;;;;;;;;;;6309629;22;20011;-82
2022/01/30 18:27:15;;;;;;;30.58;18.65;;;;;;;;;;6309708;22;20003;-82
2022/01/30 18:29:40;;;;;;;17.10;11.75;;;;;;;;;;6309621;22;20307;-83
2022/01/30 18:32:06;;;;;;;18.33;10.93;;;;;;;;;;6309830;22;20023;-84
2022/01/30 18:34:33;;;;;;;17.83;12.15;;;;;;;;;;6309478;22;20007;-85
2022/01/30 18:37:03;;;;;;;18.63;11.65;;;;;;;;;;6309554;22;20030;-83
2022/01/30 18:39:33;;;;;;;19.85;11.02;;;;;;;;;;6309454;22;20003;-85
2022/01/30 18:41:59;;;;;;;30.98;18.17;;;;;;;;;;6309625;22;20276;-83
2022/01/30 18:44:25;;;;;;;29.08;15.27;;;;;;;;;;6309541;22;20011;-83
2022/01/30 18:46:52;;;;;;;46.00;25.73;;;;;;;;;;6309551;22;19999;-83
2022/01/30 18:49:18;;;;;;;38.38;19.30;;;;;;;;;;6306823;22;20045;-84
2022/01/30 18:51:43;;;;;;;22.73;14.23;;;;;;;;;;6309087;22;20007;-85
2022/01/30 18:54:09;;;;;;;17.48;12.10;;;;;;;;;;6309274;22;19999;-83
2022/01/30 18:56:35;;;;;;;25.95;14.20;;;;;;;;;;6309213;22;20030;-84
2022/01/30 18:59:01;;;;;;;23.45;14.38;;;;;;;;;;6308955;22;19996;-83
2022/01/30 19:01:26;;;;;;;19.63;13.15;;;;;;;;;;6309486;22;20027;-85
2022/01/30 19:03:51;;;;;;;17.50;12.60;;;;;;;;;;6309283;22;20415;-83
2022/01/30 19:06:18;;;;;;;18.63;12.20;;;;;;;;;;6309070;22;20010;-81
2022/01/30 19:08:43;;;;;;;19.27;12.43;;;;;;;;;;6309319;22;20429;-80
2022/01/30 19:11:09;;;;;;;17.55;12.73;;;;;;;;;;6309299;22;19999;-83
2022/01/30 19:13:35;;;;;;;21.17;13.65;;;;;;;;;;6308863;22;20006;-83
2022/01/30 19:16:01;;;;;;;22.60;14.05;;;;;;;;;;6307460;22;20031;-83
2022/01/30 19:18:26;;;;;;;22.65;13.25;;;;;;;;;;6309089;22;20003;-84
2022/01/30 19:20:52;;;;;;;15.93;8.68;;;;;;;;;;6309148;22;20003;-84
2022/01/30 19:23:17;;;;;;;19.52;11.45;;;;;;;;;;6333837;22;20011;-84
2022/01/30 19:25:43;;;;;;;19.10;12.05;;;;;;;;;;6339764;22;20085;-85
2022/01/30 19:28:09;;;;;;;18.65;11.93;;;;;;;;;;6340182;22;19999;-87
2022/01/30 19:30:36;;;;;;;18.50;11.02;;;;;;;;;;6340052;22;20010;-83
2022/01/30 19:33:04;;;;;;;23.13;12.75;;;;;;;;;;6339968;22;20421;-85
2022/01/30 19:35:30;;;;;;;22.15;12.52;;;;;;;;;;6340269;22;20014;-87
2022/01/30 19:37:55;;;;;;;18.80;12.07;;;;;;;;;;6340165;22;20384;-87
2022/01/30 19:40:22;;;;;;;23.15;13.30;;;;;;;;;;6340183;22;20063;-82
2022/01/30 19:42:47;;;;;;;21.35;13.27;;;;;;;;;;6312507;22;20003;-86
2022/01/30 19:45:13;;;;;;;18.85;12.38;;;;;;;;;;6340118;22;20010;-84
2022/01/30 19:47:49;;;;;;;19.88;12.27;;;;;;;;;;6339931;22;20009;-86
2022/01/30 19:50:15;;;;;;;21.25;12.68;;;;;;;;;;6340062;22;20325;-89
2022/01/30 19:52:44;;;;;;;23.42;13.70;;;;;;;;;;6339723;22;20322;-84
2022/01/30 19:55:10;;;;;;;22.77;13.90;;;;;;;;;;6339807;22;20006;-85
2022/01/30 19:57:35;;;;;;;18.98;12.98;;;;;;;;;;6339612;22;20494;-84
2022/01/30 20:00:01;;;;;;;20.52;13.15;;;;;;;;;;6312157;22;20002;-86
2022/01/30 20:02:26;;;;;;;20.52;13.05;;;;;;;;;;6312222;22;20007;-85
2022/01/30 20:04:53;;;;;;;19.25;13.13;;;;;;;;;;6340163;22;20002;-83
2022/01/30 20:07:18;;;;;;;24.10;14.23;;;;;;;;;;6312233;22;20333;-85
2022/01/30 20:09:43;;;;;;;23.75;14.20;;;;;;;;;;6339816;22;20026;-85
2022/01/30 20:12:09;;;;;;;21.17;12.70;;;;;;;;;;6340666;22;20367;-84
2022/01/30 20:14:36;;;;;;;20.60;12.98;;;;;;;;;;6312358;22;20429;-88
2022/01/30 20:17:02;;;;;;;22.70;14.07;;;;;;;;;;6340571;22;20007;-90
2022/01/30 20:19:28;;;;;;;23.17;13.85;;;;;;;;;;6340808;22;19991;-91
2022/01/30 20:21:54;;;;;;;23.70;13.88;;;;;;;;;;6340774;22;20091;-88
2022/01/30 20:24:21;;;;;;;21.23;13.38;;;;;;;;;;6341249;22;20038;-90
2022/01/30 20:26:47;;;;;;;23.27;14.07;;;;;;;;;;6340954;22;19999;-89
2022/01/30 20:29:12;;;;;;;22.05;13.02;;;;;;;;;;6340426;22;20013;-89
2022/01/30 20:31:38;;;;;;;21.60;14.43;;;;;;;;;;6340445;22;20078;-87
2022/01/30 20:34:03;;;;;;;20.60;13.80;;;;;;;;;;6339742;22;20295;-85
2022/01/30 20:36:29;;;;;;;26.95;15.40;;;;;;;;;;6339729;22;20002;-83
2022/01/30 20:38:58;;;;;;;21.88;14.05;;;;;;;;;;6339680;22;20079;-86
2022/01/30 20:41:24;;;;;;;21.08;13.68;;;;;;;;;;6339956;22;20003;-80
2022/01/30 20:43:50;;;;;;;28.75;17.45;;;;;;;;;;6339879;22;20299;-84
2022/01/30 20:46:16;;;;;;;76.70;44.70;;;;;;;;;;6339905;22;20314;-84
2022/01/30 20:48:42;;;;;;;47.83;29.98;;;;;;;;;;6312036;22;20052;-87
2022/01/30 20:51:10;;;;;;;27.33;16.90;;;;;;;;;;6339672;22;20412;-87
2022/01/30 20:53:36;;;;;;;26.48;16.00;;;;;;;;;;6339850;22;20003;-85
2022/01/30 20:56:02;;;;;;;24.15;15.98;;;;;;;;;;6339711;22;20002;-88
2022/01/30 20:58:27;;;;;;;24.63;15.55;;;;;;;;;;6339872;22;20022;-84
2022/01/30 21:00:55;;;;;;;22.02;13.02;;;;;;;;;;6340030;22;20420;-86
2022/01/30 21:03:24;;;;;;;20.40;13.18;;;;;;;;;;6340110;22;20414;-85
2022/01/30 21:05:54;;;;;;;23.88;15.98;;;;;;;;;;6338829;22;20011;-85
2022/01/30 21:08:30;;;;;;;22.67;13.82;;;;;;;;;;6312253;22;19999;-86
2022/01/30 21:10:58;;;;;;;21.60;13.25;;;;;;;;;;6340668;22;20448;-85
2022/01/30 21:13:26;;;;;;;25.10;14.65;;;;;;;;;;6312563;22;20417;-86
2022/01/30 21:15:53;;;;;;;23.20;14.07;;;;;;;;;;6340096;22;20013;-84
2022/01/30 21:18:18;;;;;;;24.23;14.13;;;;;;;;;;6312300;22;19999;-86
2022/01/30 21:20:44;;;;;;;23.60;15.02;;;;;;;;;;6340026;22;20017;-87
2022/01/30 21:23:10;;;;;;;23.92;13.55;;;;;;;;;;6339632;22;20010;-86
2022/01/30 21:25:35;;;;;;;21.10;13.32;;;;;;;;;;6339511;22;20033;-86
2022/01/30 21:28:01;;;;;;;23.55;13.68;;;;;;;;;;6339262;22;20006;-85
2022/01/30 21:30:27;;;;;;;24.73;13.90;;;;;;;;;;6339370;22;20399;-86
2022/01/30 21:32:52;;;;;;;24.83;13.90;;;;;;;;;;6311704;22;20082;-85
2022/01/30 21:35:18;;;;;;;26.17;15.70;;;;;;;;;;6339709;22;20002;-85
2022/01/30 21:37:45;;;;;;;23.80;14.32;;;;;;;;;;6339420;22;20002;-86
2022/01/30 21:40:12;;;;;;;25.27;14.73;;;;;;;;;;6339363;22;20426;-85
2022/01/30 21:42:38;;;;;;;27.40;14.93;;;;;;;;;;6339466;22;20322;-86
2022/01/30 21:45:05;;;;;;;24.20;14.05;;;;;;;;;;6311688;22;20460;-85
2022/01/30 21:47:31;;;;;;;27.52;15.70;;;;;;;;;;6339239;22;19998;-84
2022/01/30 21:49:57;;;;;;;28.33;16.42;;;;;;;;;;6339784;22;20087;-86
2022/01/30 21:52:23;;;;;;;23.83;14.63;;;;;;;;;;6341358;22;20011;-85
2022/01/30 21:54:50;;;;;;;25.30;14.80;;;;;;;;;;6313645;22;20010;-85
2022/01/30 21:57:15;;;;;;;24.23;14.93;;;;;;;;;;6341199;22;19999;-85
2022/01/30 21:59:41;;;;;;;23.63;14.23;;;;;;;;;;6341080;22;20123;-84
2022/01/30 22:02:07;;;;;;;23.45;13.52;;;;;;;;;;6341139;22;20322;-86
2022/01/30 22:04:33;;;;;;;25.48;14.10;;;;;;;;;;6341350;22;20509;-85
2022/01/30 22:07:00;;;;;;;55.15;31.38;;;;;;;;;;6341254;22;20037;-84
2022/01/30 22:09:25;;;;;;;126.07;57.80;;;;;;;;;;6313473;22;20396;-87
2022/01/30 22:11:51;;;;;;;185.93;71.78;;;;;;;;;;6341451;22;20026;-87
2022/01/30 22:17:00;;;;;;;84.63;34.65;;;;;;;;;;6340955;22;20094;-84
2022/01/30 22:19:26;;;;;;;36.65;18.42;;;;;;;;;;6341131;22;20030;-84
2022/01/30 22:21:51;;;;;;;309.50;97.38;;;;;;;;;;6340959;22;20022;-84
2022/01/30 22:24:16;;;;;;;193.32;60.08;;;;;;;;;;6341068;22;20372;-86
2022/01/30 22:26:45;;;;;;;88.10;33.15;;;;;;;;;;6340948;22;20001;-87
2022/01/30 22:29:14;;;;;;;31.73;17.35;;;;;;;;;;6313162;22;20434;-86
2022/01/30 22:31:39;;;;;;;30.27;16.15;;;;;;;;;;6341064;22;19999;-86
2022/01/30 22:34:05;;;;;;;26.38;15.45;;;;;;;;;;6340850;22;20057;-84
2022/01/30 22:36:30;;;;;;;29.90;16.02;;;;;;;;;;6340876;22;20026;-85
2022/01/30 22:38:56;;;;;;;28.83;15.13;;;;;;;;;;6340898;22;20003;-85
2022/01/30 22:41:21;;;;;;;29.98;16.25;;;;;;;;;;6340847;22;20003;-85
2022/01/30 22:43:47;;;;;;;26.65;15.18;;;;;;;;;;6313078;22;20469;-84
2022/01/30 22:46:12;;;;;;;25.15;14.32;;;;;;;;;;6341362;22;20015;-84
2022/01/30 22:48:37;;;;;;;24.27;14.48;;;;;;;;;;6340671;22;20042;-84
2022/01/30 22:51:03;;;;;;;28.45;16.55;;;;;;;;;;6313206;22;19998;-85
2022/01/30 22:53:28;;;;;;;24.02;14.77;;;;;;;;;;6340815;22;20002;-84
2022/01/30 22:55:54;;;;;;;25.88;15.75;;;;;;;;;;6313132;22;20031;-86
2022/01/30 22:58:19;;;;;;;28.00;15.23;;;;;;;;;;6340437;22;20006;-85
2022/01/30 23:00:46;;;;;;;28.05;17.20;;;;;;;;;;6340447;22;19995;-84
2022/01/30 23:03:11;;;;;;;26.65;16.45;;;;;;;;;;6340479;22;20010;-86
2022/01/30 23:05:37;;;;;;;30.63;17.20;;;;;;;;;;6340514;22;20003;-85
2022/01/30 23:08:02;;;;;;;30.92;16.05;;;;;;;;;;6340435;22;20003;-87
2022/01/30 23:10:29;;;;;;;28.80;15.52;;;;;;;;;;6339804;22;20033;-84
2022/01/30 23:12:55;;;;;;;28.50;15.52;;;;;;;;;;6340273;22;20003;-85
2022/01/30 23:15:20;;;;;;;28.20;15.15;;;;;;;;;;6340392;22;20030;-84
2022/01/30 23:17:46;;;;;;;33.35;16.67;;;;;;;;;;6340323;22;20452;-82
2022/01/30 23:20:14;;;;;;;26.63;15.90;;;;;;;;;;6312590;22;20007;-85
2022/01/30 23:22:40;;;;;;;26.55;14.85;;;;;;;;;;6340040;22;20010;-84
2022/01/30 23:25:11;;;;;;;28.55;15.80;;;;;;;;;;6340143;22;20321;-85
